Airport View

Enter ICAO identifier to see the current METAR for that AWOS.

KFNL for example

KMVN 260255Z AUTO 04003KT 2SM CLR 19/15 A2998 RMK AO1 52017

26 Jul 2014 03:04

Frequency: 113.8

Phone: 618-242-7933

Other Area AWOS: KENL - KSLO - KFWC - KFOA

TAF KBLV 2600/2706 VRB06KT 9999 SCT120 BKN200 QNH2987INS BECMG 2614/2615 20010G15KT 9999 FEW060 BKN080 QNH2996INS TEMPO 2700/2704 27020G35KT 3200 TSRA FEW020 BKN050CB OVC100 BECMG 2704/2705 VRB06KT 9999 FEW020 BKN050 OVC100 QNH2995INS TX33/2621Z TN16/2611Z